Time;durP1;ratioP1;P1;durP2;ratioP2;P2;SDS_P1;SDS_P2;PMS_P1;PMS_P2;Temp;Humidity;BMP_temperature;BMP_pressure;BME280_temperature;BME280_humidity;BME280_pressure;Samples;Min_cycle;Max_cycle;Signal;HPM_P1;HPM_P2
2023/05/13 00:01:25;;;;;;;10.80;6.70;;;;;;;10.87;48.58;98286.33;106918;1276;22529;-78
2023/05/13 00:03:53;;;;;;;11.50;7.50;;;;;;;10.79;48.94;98290.38;107003;1276;24340;-78
2023/05/13 00:06:21;;;;;;;12.70;7.00;;;;;;;10.71;48.83;98290.05;106986;1276;22810;-78
2023/05/13 00:08:49;;;;;;;11.60;6.70;;;;;;;10.64;48.69;98293.75;106916;1276;22565;-78
2023/05/13 00:11:17;;;;;;;9.30;7.10;;;;;;;10.56;49.67;98295.73;106899;1276;22734;-78
2023/05/13 00:13:45;;;;;;;9.90;7.10;;;;;;;10.49;49.45;98300.30;106925;1276;22651;-78
2023/05/13 00:16:13;;;;;;;10.20;7.10;;;;;;;10.40;49.47;98301.52;106657;1276;22601;-78
2023/05/13 00:18:41;;;;;;;10.10;7.20;;;;;;;10.33;49.38;98296.77;106879;1276;22544;-78
2023/05/13 00:21:09;;;;;;;12.00;7.70;;;;;;;10.24;49.64;98300.77;106860;1276;25329;-78
2023/05/13 00:23:37;;;;;;;9.60;7.70;;;;;;;10.15;49.94;98300.02;106906;1276;24085;-78
2023/05/13 00:26:05;;;;;;;9.10;7.20;;;;;;;10.05;50.34;98297.25;106894;1276;25217;-79
2023/05/13 00:28:32;;;;;;;10.10;6.90;;;;;;;9.97;50.13;98299.59;106934;1276;22532;-78
2023/05/13 00:31:01;;;;;;;11.70;8.20;;;;;;;9.87;50.47;98295.16;106933;1276;22518;-78
2023/05/13 00:33:29;;;;;;;11.30;7.00;;;;;;;9.77;50.80;98293.98;106961;1276;24516;-80
2023/05/13 00:35:57;;;;;;;10.80;7.30;;;;;;;9.69;50.83;98290.08;107004;1276;24222;-78
2023/05/13 00:38:25;;;;;;;10.30;7.80;;;;;;;9.58;50.87;98293.65;106963;1276;24931;-80
2023/05/13 00:40:53;;;;;;;10.30;7.30;;;;;;;9.42;51.27;98292.12;106980;1276;25470;-80
2023/05/13 00:43:21;;;;;;;9.50;7.30;;;;;;;9.28;51.82;98294.86;106972;1276;22645;-77
2023/05/13 00:45:49;;;;;;;11.80;7.40;;;;;;;9.17;52.26;98296.61;107005;1276;23916;-77
2023/05/13 00:48:18;;;;;;;10.50;8.30;;;;;;;9.08;52.06;98298.77;106993;1276;22531;-79
2023/05/13 00:50:47;;;;;;;11.90;8.10;;;;;;;8.97;52.09;98300.55;106974;1267;24198;-79
2023/05/13 00:53:16;;;;;;;14.90;8.80;;;;;;;8.87;52.23;98302.98;106707;1276;23511;-79
2023/05/13 00:55:45;;;;;;;10.20;8.00;;;;;;;8.78;52.75;98299.59;106753;1276;22783;-79
2023/05/13 00:58:13;;;;;;;9.30;7.80;;;;;;;8.66;53.27;98300.62;106958;1276;25262;-79
2023/05/13 01:01:04;;;;;;;11.20;8.00;;;;;;;8.46;55.26;98301.17;106776;1276;22514;-79
2023/05/13 01:03:43;;;;;;;15.00;8.30;;;;;;;8.26;55.36;98302.08;106900;1276;24190;-78
2023/05/13 01:06:20;;;;;;;11.70;8.70;;;;;;;8.12;55.33;98303.73;106669;1276;26650;-78
2023/05/13 01:08:54;;;;;;;11.30;7.70;;;;;;;8.03;55.18;98304.02;107014;1273;22514;-78
2023/05/13 01:11:31;;;;;;;15.20;8.50;;;;;;;7.99;55.02;98307.25;106999;1276;22518;-79
2023/05/13 01:14:07;;;;;;;11.90;7.90;;;;;;;7.98;55.63;98309.66;106976;1272;22657;-79
2023/05/13 01:16:54;;;;;;;10.80;8.10;;;;;;;7.94;57.17;98310.32;106753;1276;22564;-78
2023/05/13 01:19:37;;;;;;;12.40;8.90;;;;;;;7.83;57.95;98310.45;107008;1276;22538;-79
2023/05/13 01:22:06;;;;;;;9.90;8.30;;;;;;;7.73;57.98;98310.99;106973;1276;25495;-77
2023/05/13 01:24:34;;;;;;;12.00;8.70;;;;;;;7.67;57.63;98310.73;106989;1276;22529;-77
2023/05/13 01:27:03;;;;;;;12.70;8.80;;;;;;;7.63;57.71;98313.41;106860;1274;22613;-77
2023/05/13 01:29:32;;;;;;;11.30;8.70;;;;;;;7.63;57.46;98317.65;106926;1276;24172;-79
2023/05/13 01:32:01;;;;;;;10.60;8.80;;;;;;;7.64;58.18;98317.06;106646;1276;24323;-77
2023/05/13 01:34:30;;;;;;;12.70;9.10;;;;;;;7.50;60.20;98317.12;106443;1276;22587;-78
2023/05/13 01:36:59;;;;;;;12.20;8.70;;;;;;;7.33;61.66;98314.33;106986;1276;22794;-78
2023/05/13 01:39:29;;;;;;;9.60;8.10;;;;;;;7.16;61.45;98311.30;106939;1276;22524;-75
2023/05/13 01:41:59;;;;;;;12.00;8.60;;;;;;;7.02;60.82;98313.27;107009;1276;22960;-76
2023/05/13 01:44:27;;;;;;;10.80;7.00;;;;;;;6.95;61.91;98315.55;106748;1276;22527;-74
2023/05/13 01:46:55;;;;;;;9.50;7.70;;;;;;;6.91;63.04;98317.30;106949;1276;22600;-77
2023/05/13 01:49:24;;;;;;;11.30;8.40;;;;;;;6.82;62.46;98323.34;106877;1276;22627;-76
2023/05/13 01:51:52;;;;;;;9.60;7.70;;;;;;;6.79;61.75;98320.48;106792;1276;22630;-76
2023/05/13 01:54:20;;;;;;;13.80;8.70;;;;;;;6.87;61.28;98316.39;106841;1276;22727;-77
2023/05/13 01:56:52;;;;;;;13.50;8.70;;;;;;;6.93;61.22;98319.14;106635;1276;22531;-76
2023/05/13 01:59:20;;;;;;;16.00;9.10;;;;;;;6.96;61.07;98317.38;106525;1276;25274;-79
2023/05/13 02:01:48;;;;;;;15.20;9.10;;;;;;;7.01;61.05;98324.52;106718;1276;22905;-78
2023/05/13 02:04:16;;;;;;;11.50;8.70;;;;;;;7.07;60.68;98323.98;106770;1276;23342;-77
2023/05/13 02:06:44;;;;;;;13.80;7.80;;;;;;;7.10;60.85;98324.10;106620;1276;22739;-78
2023/05/13 02:09:12;;;;;;;12.20;7.70;;;;;;;7.08;60.98;98323.03;106448;1276;25825;-76
2023/05/13 02:11:40;;;;;;;15.70;8.10;;;;;;;7.10;60.92;98324.73;106770;1276;22631;-77
2023/05/13 02:14:08;;;;;;;9.30;8.40;;;;;;;7.15;61.31;98320.31;106950;1276;22634;-77
2023/05/13 02:16:36;;;;;;;11.50;8.40;;;;;;;7.10;61.66;98323.45;106976;1276;22535;-74
2023/05/13 02:19:06;;;;;;;10.70;7.80;;;;;;;7.04;62.04;98324.08;106765;1276;22527;-74
2023/05/13 02:21:34;;;;;;;12.30;8.00;;;;;;;7.00;62.01;98321.18;106492;1276;22655;-74
2023/05/13 02:24:02;;;;;;;12.00;8.40;;;;;;;6.96;61.81;98323.43;106720;1276;22535;-74
2023/05/13 02:26:30;;;;;;;12.60;8.30;;;;;;;6.94;61.98;98320.21;106757;1276;22522;-74
2023/05/13 02:28:58;;;;;;;14.30;8.70;;;;;;;6.96;62.01;98324.77;106720;1276;24282;-75
2023/05/13 02:31:26;;;;;;;10.60;8.40;;;;;;;6.98;62.81;98323.96;106620;1276;22534;-76
2023/05/13 02:33:54;;;;;;;16.30;10.30;;;;;;;6.99;62.66;98329.59;106656;1276;22784;-75
2023/05/13 02:36:22;;;;;;;12.40;8.00;;;;;;;7.01;62.54;98333.35;106636;1276;22643;-75
2023/05/13 02:38:50;;;;;;;13.20;8.20;;;;;;;7.07;62.33;98335.89;106617;1276;22548;-77
2023/05/13 02:41:19;;;;;;;13.50;8.70;;;;;;;7.14;62.44;98333.43;106887;1276;22972;-75
2023/05/13 02:43:47;;;;;;;12.40;8.10;;;;;;;7.22;63.32;98336.65;106827;1267;22589;-77
2023/05/13 02:46:15;;;;;;;11.20;8.50;;;;;;;7.26;63.19;98333.41;106787;1276;22579;-77
2023/05/13 02:48:44;;;;;;;13.00;7.80;;;;;;;7.31;63.02;98332.87;106918;1276;22541;-76
2023/05/13 02:51:12;;;;;;;10.70;8.90;;;;;;;7.34;63.02;98337.64;106920;1276;22521;-76
2023/05/13 02:53:41;;;;;;;12.40;8.40;;;;;;;7.39;63.12;98337.33;106844;1276;22524;-77
2023/05/13 02:56:09;;;;;;;13.40;8.70;;;;;;;7.45;63.08;98336.73;106871;1276;22644;-76
2023/05/13 02:58:37;;;;;;;11.40;8.60;;;;;;;7.52;63.50;98340.88;106905;1276;22654;-78
2023/05/13 03:01:05;;;;;;;11.10;8.20;;;;;;;7.58;63.05;98345.16;106900;1276;24191;-78
2023/05/13 03:03:33;;;;;;;13.60;8.30;;;;;;;7.66;63.68;98346.34;106650;1276;23028;-77
2023/05/13 03:06:01;;;;;;;10.10;7.80;;;;;;;7.82;64.64;98345.58;106938;1276;24321;-76
2023/05/13 03:08:30;;;;;;;13.00;8.00;;;;;;;7.98;64.38;98344.56;106877;1276;22623;-77
2023/05/13 03:10:58;;;;;;;8.90;7.70;;;;;;;8.12;64.40;98346.41;106828;1276;24626;-76
2023/05/13 03:13:26;;;;;;;11.30;8.20;;;;;;;8.27;65.34;98346.86;106961;1276;24373;-75
2023/05/13 03:15:53;;;;;;;9.10;8.10;;;;;;;8.39;65.43;98346.04;106764;1276;22530;-77
2023/05/13 03:18:22;;;;;;;9.40;7.30;;;;;;;8.49;64.98;98347.90;106622;1276;26633;-75
2023/05/13 03:20:50;;;;;;;10.70;8.10;;;;;;;8.57;64.93;98350.73;106724;1276;24442;-76
2023/05/13 03:23:18;;;;;;;9.40;7.60;;;;;;;8.64;64.83;98351.61;106597;1269;23222;-76
2023/05/13 03:25:47;;;;;;;10.50;8.50;;;;;;;8.70;64.52;98349.77;106754;1276;22960;-75
2023/05/13 03:28:15;;;;;;;14.20;9.00;;;;;;;8.75;64.42;98348.34;106472;1263;23404;-76
2023/05/13 03:30:43;;;;;;;14.00;7.90;;;;;;;8.80;64.52;98347.88;106730;1276;25514;-75
2023/05/13 03:33:17;;;;;;;12.80;8.30;;;;;;;8.86;64.79;98351.45;106688;1276;24346;-76
2023/05/13 03:35:47;;;;;;;10.30;7.90;;;;;;;8.90;65.11;98349.71;106485;1276;22651;-76
2023/05/13 03:38:16;;;;;;;12.80;7.80;;;;;;;8.96;65.03;98351.95;106487;1276;22504;-76
2023/05/13 03:40:46;;;;;;;18.30;9.10;;;;;;;9.01;65.37;98353.06;106650;1276;24445;-76
2023/05/13 03:43:14;;;;;;;11.70;8.40;;;;;;;9.11;65.65;98355.30;106627;1276;25638;-75
2023/05/13 03:45:47;;;;;;;8.50;7.60;;;;;;;9.19;65.63;98353.27;106660;1276;22566;-76
2023/05/13 03:48:17;;;;;;;9.30;8.20;;;;;;;9.29;65.86;98358.27;106905;1276;22637;-75
2023/05/13 03:50:46;;;;;;;11.20;7.90;;;;;;;9.38;65.74;98361.98;106423;1276;22996;-75
2023/05/13 03:53:16;;;;;;;11.80;8.80;;;;;;;9.44;65.68;98362.90;106769;1276;24499;-75
2023/05/13 03:55:45;;;;;;;13.00;7.60;;;;;;;9.49;65.39;98361.77;106781;1276;24235;-76
2023/05/13 03:58:14;;;;;;;10.80;7.50;;;;;;;9.55;65.38;98367.61;106908;1276;25383;-76
2023/05/13 04:00:45;;;;;;;12.40;8.50;;;;;;;9.59;65.13;98373.70;106767;1276;25377;-76
2023/05/13 04:03:18;;;;;;;10.80;8.20;;;;;;;9.61;64.62;98374.61;106877;1276;25366;-77
2023/05/13 04:05:46;;;;;;;9.10;8.00;;;;;;;9.64;64.85;98379.38;106884;1276;22631;-77
2023/05/13 04:08:14;;;;;;;12.00;8.60;;;;;;;9.68;64.64;98380.70;106425;1276;24252;-76
2023/05/13 04:10:43;;;;;;;8.90;8.00;;;;;;;9.71;64.71;98380.89;106807;1276;24254;-76
2023/05/13 04:13:11;;;;;;;10.80;8.40;;;;;;;9.75;65.25;98381.67;106910;1276;24045;-76
2023/05/13 04:15:39;;;;;;;13.00;8.80;;;;;;;9.79;65.27;98378.46;107034;1276;25339;-76
2023/05/13 04:18:07;;;;;;;8.70;7.60;;;;;;;9.86;65.08;98384.92;106900;1276;22641;-76
2023/05/13 04:20:39;;;;;;;12.10;7.50;;;;;;;9.92;65.21;98382.45;106490;1276;22524;-76
2023/05/13 04:23:07;;;;;;;11.70;8.40;;;;;;;10.00;65.06;98386.58;106871;1276;24653;-74
2023/05/13 04:25:36;;;;;;;11.50;8.00;;;;;;;10.08;65.62;98384.46;106753;1276;25405;-74
2023/05/13 04:28:04;;;;;;;11.20;7.60;;;;;;;10.19;65.77;98384.14;106516;1276;24351;-74
2023/05/13 04:30:37;;;;;;;11.50;8.60;;;;;;;10.33;65.86;98382.70;106409;1276;22624;-74
2023/05/13 04:33:05;;;;;;;12.90;7.90;;;;;;;10.46;65.70;98382.39;106748;1276;22531;-74
2023/05/13 04:35:34;;;;;;;12.50;8.50;;;;;;;10.59;65.72;98387.05;106798;1276;24367;-75
2023/05/13 04:38:04;;;;;;;11.40;8.00;;;;;;;10.70;65.47;98389.36;106749;1276;24441;-75
2023/05/13 04:40:32;;;;;;;10.40;7.90;;;;;;;10.82;65.37;98387.16;106425;1276;22606;-74
2023/05/13 04:43:09;;;;;;;9.40;7.20;;;;;;;10.93;65.03;98391.30;106752;1276;25271;-75
2023/05/13 04:45:50;;;;;;;8.80;7.20;;;;;;;11.03;65.00;98388.30;106786;1276;22774;-75
2023/05/13 04:48:19;;;;;;;9.70;6.80;;;;;;;11.12;64.92;98396.13;106480;1276;24235;-75
2023/05/13 04:50:47;;;;;;;9.20;7.80;;;;;;;11.21;64.74;98394.70;106754;1276;24438;-74
2023/05/13 04:53:16;;;;;;;11.90;8.70;;;;;;;11.30;64.67;98394.70;106554;1276;22556;-75
2023/05/13 04:55:48;;;;;;;15.50;7.20;;;;;;;11.38;64.62;98393.23;106831;1276;22646;-76
2023/05/13 04:58:16;;;;;;;13.30;7.40;;;;;;;11.46;64.39;98397.34;106911;1276;24169;-75
2023/05/13 05:00:44;;;;;;;9.30;6.90;;;;;;;11.55;64.12;98396.16;106749;1276;22550;-75
2023/05/13 05:03:13;;;;;;;11.10;7.60;;;;;;;11.64;64.10;98397.61;106723;1276;22644;-75
2023/05/13 05:05:41;;;;;;;7.40;6.70;;;;;;;11.71;63.96;98402.61;106500;1276;22573;-74
2023/05/13 05:08:10;;;;;;;15.20;8.10;;;;;;;11.82;63.89;98399.61;106801;1276;22924;-74
2023/05/13 05:10:38;;;;;;;8.90;7.30;;;;;;;11.91;63.57;98403.10;106789;1276;22584;-74
2023/05/13 05:13:09;;;;;;;8.70;6.30;;;;;;;11.99;63.43;98402.91;106808;1253;25312;-75
2023/05/13 05:15:38;;;;;;;10.10;6.40;;;;;;;12.08;63.20;98406.27;106651;1276;25233;-74
2023/05/13 05:18:07;;;;;;;8.80;6.60;;;;;;;12.16;63.10;98402.67;106934;1276;24357;-75
2023/05/13 05:20:37;;;;;;;9.30;6.00;;;;;;;12.27;62.95;98407.69;106764;1276;22535;-75
2023/05/13 05:23:09;;;;;;;16.10;7.00;;;;;;;12.33;62.45;98402.17;106661;1276;22524;-75
2023/05/13 05:25:38;;;;;;;7.00;6.20;;;;;;;12.38;62.32;98408.10;106745;1276;22537;-75
2023/05/13 05:28:08;;;;;;;6.90;6.00;;;;;;;12.48;62.43;98410.39;106764;1276;22640;-75
2023/05/13 05:30:39;;;;;;;8.70;6.00;;;;;;;12.59;62.12;98410.67;106742;1276;22528;-75
2023/05/13 05:33:13;;;;;;;9.40;6.00;;;;;;;12.67;62.02;98412.95;106883;1276;22517;-76
2023/05/13 05:35:41;;;;;;;7.60;5.40;;;;;;;12.77;61.91;98411.95;106891;1276;25332;-76
2023/05/13 05:38:13;;;;;;;10.00;5.40;;;;;;;12.87;61.50;98417.83;106910;1276;23089;-76
2023/05/13 05:40:43;;;;;;;12.80;5.70;;;;;;;12.94;61.41;98417.40;106628;1276;24364;-75
2023/05/13 05:43:11;;;;;;;10.80;5.50;;;;;;;13.04;61.12;98415.84;106483;1276;22734;-75
2023/05/13 05:45:39;;;;;;;8.40;5.30;;;;;;;13.12;60.97;98420.23;106917;1276;22654;-75
2023/05/13 05:48:10;;;;;;;8.60;5.20;;;;;;;13.19;60.76;98419.05;106603;1276;24334;-75
2023/05/13 05:50:40;;;;;;;10.00;4.90;;;;;;;13.26;60.58;98419.52;106480;1276;25529;-75
2023/05/13 05:53:10;;;;;;;7.90;5.50;;;;;;;13.34;60.25;98423.09;106832;1276;25346;-75
2023/05/13 05:55:40;;;;;;;6.90;5.10;;;;;;;13.42;60.37;98423.97;106859;1257;22644;-75
2023/05/13 05:58:15;;;;;;;9.10;6.70;;;;;;;13.50;59.77;98427.25;106753;1276;25312;-76
2023/05/13 06:00:43;;;;;;;9.80;5.10;;;;;;;13.54;59.47;98431.05;106744;1276;22630;-76
2023/05/13 06:03:11;;;;;;;7.60;5.10;;;;;;;13.57;58.86;98430.03;106641;1276;23157;-75
2023/05/13 06:05:40;;;;;;;8.50;5.00;;;;;;;13.62;59.03;98432.27;106477;1276;24193;-78
2023/05/13 06:08:08;;;;;;;5.50;4.70;;;;;;;13.72;58.64;98429.20;107019;1276;23948;-78
2023/05/13 06:10:37;;;;;;;7.20;4.40;;;;;;;13.79;58.40;98432.21;106678;1276;25500;-77
2023/05/13 06:13:05;;;;;;;5.60;4.20;;;;;;;13.89;58.70;98432.80;106862;1260;22524;-77
2023/05/13 06:15:35;;;;;;;6.60;4.80;;;;;;;13.99;57.78;98433.86;106725;1276;22573;-77
2023/05/13 06:18:04;;;;;;;7.90;4.80;;;;;;;14.09;57.62;98437.14;106742;1276;22783;-76
2023/05/13 06:20:34;;;;;;;10.00;4.60;;;;;;;14.18;57.36;98434.92;106811;1276;22727;-76
2023/05/13 06:23:02;;;;;;;7.80;5.00;;;;;;;14.23;56.69;98433.71;106750;1276;22524;-75
2023/05/13 06:25:30;;;;;;;7.60;4.80;;;;;;;14.24;56.01;98438.95;106492;1276;22521;-77
2023/05/13 06:27:59;;;;;;;10.00;4.70;;;;;;;14.24;55.81;98440.52;106730;1254;25579;-77
2023/05/13 06:30:30;;;;;;;5.40;4.40;;;;;;;14.30;56.25;98439.24;106889;1276;22791;-77
2023/05/13 06:32:57;;;;;;;6.20;4.00;;;;;;;14.38;55.42;98441.81;106792;1269;23034;-75
2023/05/13 06:35:30;;;;;;;8.80;4.40;;;;;;;14.41;55.28;98440.26;106789;1276;22519;-76
2023/05/13 06:37:59;;;;;;;8.40;4.20;;;;;;;14.47;54.98;98441.77;106740;1276;22524;-79
2023/05/13 06:40:27;;;;;;;5.90;4.30;;;;;;;14.57;55.59;98436.40;106831;1276;22531;-77
2023/05/13 06:42:55;;;;;;;7.90;4.70;;;;;;;14.72;55.29;98438.12;106861;1276;22570;-78
2023/05/13 06:45:29;;;;;;;9.30;4.50;;;;;;;14.80;54.61;98432.00;107018;1276;22801;-77
2023/05/13 06:47:57;;;;;;;5.50;4.00;;;;;;;14.84;54.97;98430.73;106686;1266;24094;-77
2023/05/13 06:50:25;;;;;;;6.90;4.00;;;;;;;14.94;54.78;98437.61;106728;1276;22565;-81
2023/05/13 06:52:53;;;;;;;7.30;4.70;;;;;;;15.05;54.51;98435.63;107047;1276;25488;-77
2023/05/13 06:55:21;;;;;;;6.70;3.90;;;;;;;15.12;53.58;98434.86;107071;1276;25613;-76
2023/05/13 06:57:50;;;;;;;10.00;4.00;;;;;;;15.13;53.33;98435.69;106975;1276;24292;-79
2023/05/13 07:00:18;;;;;;;7.90;4.20;;;;;;;15.11;52.46;98436.54;107037;1276;22935;-77
2023/05/13 07:02:46;;;;;;;7.90;4.80;;;;;;;15.12;53.03;98438.59;107014;1276;22788;-77
2023/05/13 07:05:14;;;;;;;9.20;4.30;;;;;;;15.16;51.96;98435.70;107025;1276;25636;-78
2023/05/13 07:07:42;;;;;;;8.20;3.90;;;;;;;15.12;51.19;98438.82;107022;1276;24649;-79
2023/05/13 07:10:10;;;;;;;10.30;4.50;;;;;;;15.13;51.52;98440.13;106947;1276;22570;-78
2023/05/13 07:12:38;;;;;;;10.00;3.80;;;;;;;15.15;50.30;98441.21;106952;1276;22943;-77
2023/05/13 07:15:07;;;;;;;6.00;3.90;;;;;;;15.15;50.79;98438.44;106904;1276;22623;-77
2023/05/13 07:17:35;;;;;;;7.20;4.10;;;;;;;15.24;51.01;98439.80;106905;1276;22550;-78
2023/05/13 07:20:04;;;;;;;9.90;4.00;;;;;;;15.34;50.50;98435.58;106768;1276;22517;-78
2023/05/13 07:22:32;;;;;;;8.10;4.10;;;;;;;15.37;49.89;98435.64;106844;1276;24663;-76
2023/05/13 07:25:00;;;;;;;7.50;4.00;;;;;;;15.35;49.66;98432.32;106985;1276;24268;-75
2023/05/13 07:27:28;;;;;;;10.50;4.30;;;;;;;15.38;49.67;98432.90;106758;1276;24183;-75
2023/05/13 07:29:56;;;;;;;9.30;3.90;;;;;;;15.43;49.08;98434.15;106718;1276;23974;-76
2023/05/13 07:32:23;;;;;;;17.10;5.40;;;;;;;15.49;48.19;98434.48;106861;1276;24256;-76
2023/05/13 07:34:51;;;;;;;6.20;4.30;;;;;;;15.54;48.65;98434.10;106919;1276;25399;-76
2023/05/13 07:37:19;;;;;;;6.70;3.50;;;;;;;15.67;48.43;98433.39;106652;1276;22787;-76
2023/05/13 07:39:47;;;;;;;9.10;4.10;;;;;;;15.77;47.97;98436.29;106935;1276;25396;-76
2023/05/13 07:42:15;;;;;;;6.40;4.70;;;;;;;15.83;47.14;98438.10;106917;1276;22564;-76
2023/05/13 07:44:43;;;;;;;6.20;4.00;;;;;;;15.82;47.28;98436.84;106751;1276;22566;-76
2023/05/13 07:47:11;;;;;;;7.90;4.10;;;;;;;15.89;47.35;98438.42;106498;1276;25464;-76
2023/05/13 07:49:40;;;;;;;6.00;3.90;;;;;;;15.93;47.04;98439.55;106791;1276;23911;-76
2023/05/13 07:52:08;;;;;;;8.00;4.50;;;;;;;15.98;47.20;98433.38;106758;1276;22534;-75
2023/05/13 07:54:36;;;;;;;7.00;3.90;;;;;;;16.04;47.59;98439.41;106947;1276;25513;-77
2023/05/13 07:57:04;;;;;;;7.90;4.00;;;;;;;16.13;47.26;98439.88;106959;1276;24081;-76
2023/05/13 07:59:32;;;;;;;5.90;4.40;;;;;;;16.22;46.71;98437.80;106970;1276;22545;-77
2023/05/13 08:02:01;;;;;;;7.90;4.10;;;;;;;16.24;46.15;98437.48;106896;1276;25457;-77
2023/05/13 08:04:29;;;;;;;5.10;4.00;;;;;;;16.25;45.60;98440.86;106906;1276;22805;-76
2023/05/13 08:06:57;;;;;;;11.60;4.90;;;;;;;16.28;46.53;98441.14;106745;1276;22871;-77
2023/05/13 08:09:25;;;;;;;8.30;4.40;;;;;;;16.31;45.95;98435.86;106926;1276;22560;-76
2023/05/13 08:11:56;;;;;;;5.40;4.00;;;;;;;16.30;46.30;98440.98;106905;1276;24081;-76
2023/05/13 08:14:24;;;;;;;8.20;4.40;;;;;;;16.42;46.26;98442.97;106895;1276;25324;-76
2023/05/13 08:16:52;;;;;;;6.40;4.40;;;;;;;16.54;46.08;98437.49;106918;1276;24183;-76
2023/05/13 08:19:20;;;;;;;7.30;4.30;;;;;;;16.62;45.53;98437.45;107203;1276;24270;-76
2023/05/13 08:21:48;;;;;;;7.30;4.20;;;;;;;16.63;45.24;98437.73;106999;1276;24056;-76
2023/05/13 08:24:16;;;;;;;7.00;4.00;;;;;;;16.66;45.53;98440.57;106869;1276;22529;-75
2023/05/13 08:26:44;;;;;;;7.70;4.40;;;;;;;16.75;45.63;98435.77;106815;1267;22524;-76
2023/05/13 08:29:14;;;;;;;6.60;4.50;;;;;;;16.83;45.19;98431.19;106901;1276;25259;-75
2023/05/13 08:31:42;;;;;;;5.50;4.50;;;;;;;16.78;45.55;98437.31;106866;1276;22524;-77
2023/05/13 08:34:10;;;;;;;8.70;4.30;;;;;;;16.87;45.78;98435.24;106992;1276;22570;-75
2023/05/13 08:36:38;;;;;;;13.70;4.80;;;;;;;17.05;45.61;98441.55;106771;1276;23554;-76
2023/05/13 08:39:06;;;;;;;11.60;5.20;;;;;;;17.16;45.00;98442.77;106918;1276;22528;-76
2023/05/13 08:41:36;;;;;;;7.10;5.00;;;;;;;17.20;45.11;98444.16;106560;1276;25230;-76
2023/05/13 08:44:06;;;;;;;7.90;4.40;;;;;;;17.21;44.59;98434.86;106754;1276;25389;-76
2023/05/13 08:46:37;;;;;;;14.00;4.60;;;;;;;17.20;44.62;98438.05;106889;1276;24307;-76
2023/05/13 08:49:08;;;;;;;6.80;4.60;;;;;;;17.22;44.50;98432.52;106921;1276;22650;-75
2023/05/13 08:51:36;;;;;;;6.30;4.20;;;;;;;17.23;44.32;98438.99;107205;1276;24497;-76
2023/05/13 08:54:08;;;;;;;9.90;4.50;;;;;;;17.30;43.96;98435.14;106924;1276;25793;-76
2023/05/13 08:56:36;;;;;;;9.30;4.30;;;;;;;17.42;44.29;98436.86;106970;1276;22530;-76
2023/05/13 08:59:04;;;;;;;7.10;3.60;;;;;;;17.60;43.53;98434.75;106941;1276;22768;-76
2023/05/13 09:01:33;;;;;;;6.50;3.80;;;;;;;17.68;42.85;98440.17;107837;1276;22578;-75
2023/05/13 09:04:05;;;;;;;7.40;4.40;;;;;;;17.70;42.55;98438.78;110014;1276;22515;-76
2023/05/13 09:06:33;;;;;;;6.30;3.90;;;;;;;17.77;42.24;98434.11;106941;1276;25372;-76
2023/05/13 09:09:01;;;;;;;8.80;4.70;;;;;;;17.77;42.08;98434.52;106707;1276;25329;-76
2023/05/13 09:11:29;;;;;;;7.50;4.40;;;;;;;17.59;42.01;98430.88;106760;1276;22532;-76
2023/05/13 09:13:59;;;;;;;13.40;6.20;;;;;;;17.40;42.33;98435.16;106949;1276;22557;-76
2023/05/13 09:16:27;;;;;;;7.20;4.30;;;;;;;17.29;42.40;98434.09;106985;1276;22531;-76
2023/05/13 09:19:01;;;;;;;13.10;4.80;;;;;;;17.23;42.48;98436.11;106790;1276;22535;-76
2023/05/13 09:21:34;;;;;;;9.90;4.30;;;;;;;17.19;42.60;98430.15;106721;1276;22524;-76
2023/05/13 09:24:17;;;;;;;6.20;3.60;;;;;;;17.22;42.62;98424.27;106801;1276;22536;-76
2023/05/13 09:26:45;;;;;;;11.30;3.70;;;;;;;17.31;42.77;98427.02;106874;1259;22640;-77
2023/05/13 09:29:24;;;;;;;8.40;4.60;;;;;;;17.53;42.74;98429.90;106860;1276;22676;-76
2023/05/13 09:31:56;;;;;;;7.10;4.40;;;;;;;17.86;42.13;98430.20;106895;1276;22602;-76
2023/05/13 09:34:33;;;;;;;6.50;3.60;;;;;;;18.05;41.63;98428.86;106933;1276;25284;-76
2023/05/13 09:37:06;;;;;;;7.00;4.20;;;;;;;18.22;40.99;98425.25;107057;1276;25463;-77
2023/05/13 09:39:39;;;;;;;9.20;4.10;;;;;;;18.45;41.33;98427.98;107062;1276;22778;-79
2023/05/13 09:42:16;;;;;;;9.80;4.20;;;;;;;18.57;40.60;98420.46;107022;1276;24283;-76
2023/05/13 09:44:45;;;;;;;6.60;3.90;;;;;;;18.69;41.27;98412.20;106929;1276;23156;-76
2023/05/13 09:47:14;;;;;;;11.00;4.10;;;;;;;18.87;40.26;98410.64;106906;1276;24300;-76
2023/05/13 09:49:43;;;;;;;7.90;4.10;;;;;;;18.95;39.55;98412.85;106964;1276;23283;-76
2023/05/13 09:52:15;;;;;;;9.30;3.80;;;;;;;18.99;39.10;98410.71;106998;1276;22523;-76
2023/05/13 09:54:43;;;;;;;6.30;3.40;;;;;;;19.13;39.26;98407.40;106857;1276;24259;-76
2023/05/13 09:57:13;;;;;;;7.40;3.60;;;;;;;19.27;38.78;98411.10;106979;1276;22521;-76
2023/05/13 09:59:41;;;;;;;10.20;3.80;;;;;;;19.31;37.28;98406.95;106903;1253;22527;-75
2023/05/13 10:02:11;;;;;;;7.40;3.30;;;;;;;19.30;37.33;98416.45;106764;1276;22801;-75
2023/05/13 10:04:40;;;;;;;6.00;3.20;;;;;;;19.33;37.08;98407.48;106753;1276;22517;-75
2023/05/13 10:07:11;;;;;;;7.00;3.40;;;;;;;19.30;36.32;98404.24;106760;1276;24261;-75
2023/05/13 10:09:41;;;;;;;5.90;3.00;;;;;;;19.28;36.60;98407.16;106986;1276;24375;-76
2023/05/13 10:12:13;;;;;;;6.50;3.20;;;;;;;19.25;36.08;98410.05;107034;1276;22643;-75
2023/05/13 10:14:42;;;;;;;8.70;3.30;;;;;;;19.26;36.86;98410.85;106930;1276;22564;-75
2023/05/13 10:17:11;;;;;;;5.20;3.30;;;;;;;19.34;36.42;98405.00;106939;1276;24259;-75
2023/05/13 10:19:39;;;;;;;7.10;3.50;;;;;;;19.41;36.46;98402.02;106892;1263;22532;-75
2023/05/13 10:22:08;;;;;;;10.90;3.60;;;;;;;19.58;36.46;98406.17;106886;1276;22647;-74
2023/05/13 10:24:38;;;;;;;8.00;3.40;;;;;;;19.66;36.62;98413.88;106730;1276;22637;-74
2023/05/13 10:27:07;;;;;;;16.60;4.30;;;;;;;19.55;35.27;98414.83;106769;1276;24334;-75
2023/05/13 10:29:37;;;;;;;16.20;3.50;;;;;;;19.35;34.90;98419.71;106751;1276;25326;-76
2023/05/13 10:32:07;;;;;;;10.50;3.40;;;;;;;19.28;35.10;98427.05;106777;1276;22643;-78
2023/05/13 10:34:38;;;;;;;9.00;3.30;;;;;;;19.09;35.15;98424.36;107029;1276;22536;-77
2023/05/13 10:37:26;;;;;;;6.30;3.50;;;;;;;19.10;35.44;98428.77;107303;1254;22646;-78
2023/05/13 10:40:17;;;;;;;7.30;3.30;;;;;;;19.19;35.81;98433.95;107256;1276;22521;-80
2023/05/13 10:43:06;;;;;;;5.50;3.20;;;;;;;19.04;35.65;98430.84;107012;1276;22741;-77
2023/05/13 10:45:34;;;;;;;7.80;3.20;;;;;;;18.78;35.89;98434.84;106912;1276;24341;-77
2023/05/13 10:48:07;;;;;;;12.70;4.10;;;;;;;18.69;36.22;98435.42;106770;1276;23242;-77
2023/05/13 10:50:39;;;;;;;4.80;3.10;;;;;;;18.59;36.47;98434.19;106835;1276;22962;-75
2023/05/13 10:53:09;;;;;;;8.20;3.50;;;;;;;18.58;36.79;98425.25;106718;1275;22663;-77
2023/05/13 10:55:46;;;;;;;7.40;3.80;;;;;;;18.67;37.05;98428.81;106801;1276;22785;-77
2023/05/13 10:58:15;;;;;;;5.90;3.50;;;;;;;18.78;37.02;98426.97;106791;1276;24383;-77
2023/05/13 11:00:44;;;;;;;5.90;3.50;;;;;;;18.99;37.33;98423.36;106774;1276;22592;-76
2023/05/13 11:03:12;;;;;;;10.20;3.70;;;;;;;19.21;37.20;98423.58;106719;1276;22650;-76
2023/05/13 11:05:45;;;;;;;6.70;3.50;;;;;;;19.37;36.77;98422.50;106753;1276;25380;-76
2023/05/13 11:08:37;;;;;;;6.30;3.70;;;;;;;19.37;36.84;98419.54;106796;1276;24191;-77
2023/05/13 11:11:18;;;;;;;7.20;3.90;;;;;;;19.48;36.89;98414.63;106755;1276;22534;-76
2023/05/13 11:13:49;;;;;;;8.10;4.00;;;;;;;19.62;36.68;98411.54;106763;1276;22531;-77
2023/05/13 11:16:17;;;;;;;8.30;4.00;;;;;;;19.60;36.51;98410.05;106785;1276;25371;-76
2023/05/13 11:18:45;;;;;;;9.80;3.90;;;;;;;19.50;36.77;98411.17;106769;1276;22535;-77
2023/05/13 11:21:14;;;;;;;10.20;4.10;;;;;;;19.48;36.65;98413.33;106780;1276;24055;-76
2023/05/13 11:23:51;;;;;;;8.00;3.80;;;;;;;19.44;36.95;98415.70;106727;1276;22548;-76
2023/05/13 11:26:20;;;;;;;7.00;3.80;;;;;;;19.44;37.08;98417.31;106760;1276;22523;-78
2023/05/13 11:28:55;;;;;;;7.90;3.90;;;;;;;19.46;37.22;98414.89;106909;1276;24219;-75
2023/05/13 11:31:26;;;;;;;10.10;4.50;;;;;;;19.42;36.84;98417.81;106733;1276;22533;-75
2023/05/13 11:34:14;;;;;;;5.90;3.70;;;;;;;19.33;37.12;98420.02;106800;1276;24071;-76
2023/05/13 11:36:47;;;;;;;10.60;3.80;;;;;;;19.33;36.94;98419.49;106788;1276;25102;-76